sensor_id;sensor_type;location;lat;lon;timestamp;temperature;humidity
4602;DHT22;2313;48.552;9.370;2022-09-20T00:01:21;8.60;99.90
4602;DHT22;2313;48.552;9.370;2022-09-20T00:03:50;8.50;99.90
4602;DHT22;2313;48.552;9.370;2022-09-20T00:06:19;8.40;99.90
4602;DHT22;2313;48.552;9.370;2022-09-20T00:08:46;8.30;99.90
4602;DHT22;2313;48.552;9.370;2022-09-20T00:11:15;8.30;99.90
4602;DHT22;2313;48.552;9.370;2022-09-20T00:13:47;8.30;99.90
4602;DHT22;2313;48.552;9.370;2022-09-20T00:16:16;8.40;99.90
4602;DHT22;2313;48.552;9.370;2022-09-20T00:18:42;8.50;99.90
4602;DHT22;2313;48.552;9.370;2022-09-20T00:21:15;8.50;99.90
4602;DHT22;2313;48.552;9.370;2022-09-20T00:23:41;8.50;99.90
4602;DHT22;2313;48.552;9.370;2022-09-20T00:26:06;8.60;99.90
4602;DHT22;2313;48.552;9.370;2022-09-20T00:28:32;8.70;99.90
4602;DHT22;2313;48.552;9.370;2022-09-20T00:30:59;8.70;99.90
4602;DHT22;2313;48.552;9.370;2022-09-20T00:33:25;8.70;99.90
4602;DHT22;2313;48.552;9.370;2022-09-20T00:36:10;8.70;99.90
4602;DHT22;2313;48.552;9.370;2022-09-20T00:38:36;8.50;99.90
4602;DHT22;2313;48.552;9.370;2022-09-20T00:41:02;8.40;99.90
4602;DHT22;2313;48.552;9.370;2022-09-20T00:43:43;8.40;99.90
4602;DHT22;2313;48.552;9.370;2022-09-20T00:46:19;8.50;99.90
4602;DHT22;2313;48.552;9.370;2022-09-20T00:48:47;8.50;99.90
4602;DHT22;2313;48.552;9.370;2022-09-20T00:51:16;8.50;99.90
4602;DHT22;2313;48.552;9.370;2022-09-20T00:53:46;8.60;99.90
4602;DHT22;2313;48.552;9.370;2022-09-20T00:56:16;8.60;99.90
4602;DHT22;2313;48.552;9.370;2022-09-20T00:58:50;8.60;99.90
4602;DHT22;2313;48.552;9.370;2022-09-20T01:01:19;8.70;99.90
4602;DHT22;2313;48.552;9.370;2022-09-20T01:03:45;8.70;99.90
4602;DHT22;2313;48.552;9.370;2022-09-20T01:06:14;8.60;99.90
4602;DHT22;2313;48.552;9.370;2022-09-20T01:08:44;8.60;99.90
4602;DHT22;2313;48.552;9.370;2022-09-20T01:11:10;8.60;99.90
4602;DHT22;2313;48.552;9.370;2022-09-20T01:13:36;8.60;99.90
4602;DHT22;2313;48.552;9.370;2022-09-20T01:16:03;8.50;99.90
4602;DHT22;2313;48.552;9.370;2022-09-20T01:18:31;8.50;99.90
4602;DHT22;2313;48.552;9.370;2022-09-20T01:20:58;8.40;99.90
4602;DHT22;2313;48.552;9.370;2022-09-20T01:31:57;8.20;99.90
4602;DHT22;2313;48.552;9.370;2022-09-20T01:34:30;8.20;99.90
4602;DHT22;2313;48.552;9.370;2022-09-20T01:37:29;8.20;99.90
4602;DHT22;2313;48.552;9.370;2022-09-20T01:45:48;8.00;99.90
4602;DHT22;2313;48.552;9.370;2022-09-20T01:48:36;8.00;99.90
4602;DHT22;2313;48.552;9.370;2022-09-20T02:20:31;8.00;99.90
4602;DHT22;2313;48.552;9.370;2022-09-20T02:29:01;8.20;99.90
4602;DHT22;2313;48.552;9.370;2022-09-20T02:31:58;8.30;99.90
4602;DHT22;2313;48.552;9.370;2022-09-20T02:48:57;8.30;99.90
4602;DHT22;2313;48.552;9.370;2022-09-20T02:51:39;8.40;99.90
4602;DHT22;2313;48.552;9.370;2022-09-20T02:54:21;8.40;99.90
4602;DHT22;2313;48.552;9.370;2022-09-20T02:56:58;8.40;99.90
4602;DHT22;2313;48.552;9.370;2022-09-20T03:02:30;8.40;99.90
4602;DHT22;2313;48.552;9.370;2022-09-20T03:08:00;8.40;99.90
4602;DHT22;2313;48.552;9.370;2022-09-20T03:10:33;8.40;99.90
4602;DHT22;2313;48.552;9.370;2022-09-20T03:21:27;8.60;99.90
4602;DHT22;2313;48.552;9.370;2022-09-20T03:24:01;8.60;99.90
4602;DHT22;2313;48.552;9.370;2022-09-20T03:33:02;8.70;99.90
4602;DHT22;2313;48.552;9.370;2022-09-20T03:41:22;8.80;99.90
4602;DHT22;2313;48.552;9.370;2022-09-20T03:46:28;8.70;99.90
4602;DHT22;2313;48.552;9.370;2022-09-20T04:00:22;8.90;99.90
4602;DHT22;2313;48.552;9.370;2022-09-20T04:13:54;8.70;99.90
4602;DHT22;2313;48.552;9.370;2022-09-20T04:16:45;8.70;99.90
4602;DHT22;2313;48.552;9.370;2022-09-20T04:19:36;8.70;99.90
4602;DHT22;2313;48.552;9.370;2022-09-20T04:22:07;8.70;99.90
4602;DHT22;2313;48.552;9.370;2022-09-20T04:24:40;8.80;99.90
4602;DHT22;2313;48.552;9.370;2022-09-20T04:27:44;8.80;99.90
4602;DHT22;2313;48.552;9.370;2022-09-20T04:30:18;8.90;99.90
4602;DHT22;2313;48.552;9.370;2022-09-20T04:33:17;8.90;99.90
4602;DHT22;2313;48.552;9.370;2022-09-20T04:36:22;8.80;99.90
4602;DHT22;2313;48.552;9.370;2022-09-20T04:53:17;9.00;99.90
4602;DHT22;2313;48.552;9.370;2022-09-20T05:09:47;9.10;99.90
4602;DHT22;2313;48.552;9.370;2022-09-20T05:12:23;9.20;99.90
4602;DHT22;2313;48.552;9.370;2022-09-20T05:26:50;9.30;99.90
4602;DHT22;2313;48.552;9.370;2022-09-20T05:29:30;9.30;99.90
4602;DHT22;2313;48.552;9.370;2022-09-20T05:32:21;9.30;99.90
4602;DHT22;2313;48.552;9.370;2022-09-20T05:34:59;9.30;99.90
4602;DHT22;2313;48.552;9.370;2022-09-20T05:37:59;9.30;99.90
4602;DHT22;2313;48.552;9.370;2022-09-20T05:43:38;9.30;99.90
4602;DHT22;2313;48.552;9.370;2022-09-20T05:46:33;9.20;99.90
4602;DHT22;2313;48.552;9.370;2022-09-20T05:54:48;9.20;99.90
4602;DHT22;2313;48.552;9.370;2022-09-20T06:02:46;9.00;99.90
4602;DHT22;2313;48.552;9.370;2022-09-20T06:08:32;9.00;99.90
4602;DHT22;2313;48.552;9.370;2022-09-20T06:14:13;9.00;99.90
4602;DHT22;2313;48.552;9.370;2022-09-20T06:16:56;9.00;99.90
4602;DHT22;2313;48.552;9.370;2022-09-20T06:22:39;9.10;99.90
4602;DHT22;2313;48.552;9.370;2022-09-20T06:27:54;9.10;99.90
4602;DHT22;2313;48.552;9.370;2022-09-20T06:30:46;9.10;99.90
4602;DHT22;2313;48.552;9.370;2022-09-20T06:36:00;9.10;99.90
4602;DHT22;2313;48.552;9.370;2022-09-20T06:42:01;9.10;99.90
4602;DHT22;2313;48.552;9.370;2022-09-20T06:44:27;9.20;99.90
4602;DHT22;2313;48.552;9.370;2022-09-20T06:46:53;9.20;99.90
4602;DHT22;2313;48.552;9.370;2022-09-20T06:49:22;9.20;99.90
4602;DHT22;2313;48.552;9.370;2022-09-20T06:51:48;9.10;99.90
4602;DHT22;2313;48.552;9.370;2022-09-20T06:54:19;9.20;99.90
4602;DHT22;2313;48.552;9.370;2022-09-20T06:56:45;9.30;99.90
4602;DHT22;2313;48.552;9.370;2022-09-20T06:59:11;9.30;99.90
4602;DHT22;2313;48.552;9.370;2022-09-20T07:01:38;9.30;99.90
4602;DHT22;2313;48.552;9.370;2022-09-20T07:04:04;9.30;99.90
4602;DHT22;2313;48.552;9.370;2022-09-20T07:06:34;9.40;99.90
4602;DHT22;2313;48.552;9.370;2022-09-20T07:09:00;9.40;99.90
4602;DHT22;2313;48.552;9.370;2022-09-20T07:11:26;9.40;99.90
4602;DHT22;2313;48.552;9.370;2022-09-20T07:13:54;9.40;99.90
4602;DHT22;2313;48.552;9.370;2022-09-20T07:16:20;9.40;99.90
4602;DHT22;2313;48.552;9.370;2022-09-20T07:18:47;9.40;99.90
4602;DHT22;2313;48.552;9.370;2022-09-20T07:21:17;9.50;99.90
4602;DHT22;2313;48.552;9.370;2022-09-20T07:23:43;9.50;99.90
4602;DHT22;2313;48.552;9.370;2022-09-20T07:26:25;9.60;99.90
4602;DHT22;2313;48.552;9.370;2022-09-20T07:28:52;9.70;99.90
4602;DHT22;2313;48.552;9.370;2022-09-20T07:31:20;9.70;99.90
4602;DHT22;2313;48.552;9.370;2022-09-20T07:33:47;9.80;99.90
4602;DHT22;2313;48.552;9.370;2022-09-20T07:36:13;10.00;99.90
4602;DHT22;2313;48.552;9.370;2022-09-20T07:38:45;10.00;99.90
4602;DHT22;2313;48.552;9.370;2022-09-20T07:41:11;10.10;99.90
4602;DHT22;2313;48.552;9.370;2022-09-20T07:43:37;10.20;99.90
4602;DHT22;2313;48.552;9.370;2022-09-20T07:46:03;10.40;99.90
4602;DHT22;2313;48.552;9.370;2022-09-20T07:48:31;10.40;99.90
4602;DHT22;2313;48.552;9.370;2022-09-20T07:51:06;10.50;99.90
4602;DHT22;2313;48.552;9.370;2022-09-20T07:53:31;10.50;99.90
4602;DHT22;2313;48.552;9.370;2022-09-20T07:58:35;10.40;99.90
4602;DHT22;2313;48.552;9.370;2022-09-20T08:01:08;10.50;99.90
4602;DHT22;2313;48.552;9.370;2022-09-20T08:03:34;10.60;99.90
4602;DHT22;2313;48.552;9.370;2022-09-20T08:06:04;10.80;99.90
4602;DHT22;2313;48.552;9.370;2022-09-20T08:08:32;11.00;99.90
4602;DHT22;2313;48.552;9.370;2022-09-20T08:11:06;11.10;99.90
4602;DHT22;2313;48.552;9.370;2022-09-20T08:13:36;11.30;99.90
4602;DHT22;2313;48.552;9.370;2022-09-20T08:16:04;11.40;99.90
4602;DHT22;2313;48.552;9.370;2022-09-20T08:18:30;11.20;99.90
4602;DHT22;2313;48.552;9.370;2022-09-20T08:20:56;11.20;99.90
4602;DHT22;2313;48.552;9.370;2022-09-20T08:23:21;11.20;99.90
4602;DHT22;2313;48.552;9.370;2022-09-20T08:25:47;11.40;99.90
4602;DHT22;2313;48.552;9.370;2022-09-20T08:28:13;11.50;99.90
4602;DHT22;2313;48.552;9.370;2022-09-20T08:30:39;11.70;99.90
4602;DHT22;2313;48.552;9.370;2022-09-20T08:33:05;11.70;99.90
4602;DHT22;2313;48.552;9.370;2022-09-20T08:35:34;11.70;99.90
4602;DHT22;2313;48.552;9.370;2022-09-20T08:38:00;11.90;99.90
4602;DHT22;2313;48.552;9.370;2022-09-20T08:40:27;12.20;99.90
4602;DHT22;2313;48.552;9.370;2022-09-20T08:42:54;12.20;99.90
4602;DHT22;2313;48.552;9.370;2022-09-20T08:45:22;12.40;99.90
4602;DHT22;2313;48.552;9.370;2022-09-20T08:47:59;12.50;99.90
4602;DHT22;2313;48.552;9.370;2022-09-20T08:50:26;12.50;99.90
4602;DHT22;2313;48.552;9.370;2022-09-20T08:52:56;12.50;99.90
4602;DHT22;2313;48.552;9.370;2022-09-20T08:55:26;12.40;99.90
4602;DHT22;2313;48.552;9.370;2022-09-20T08:57:57;12.40;99.90
4602;DHT22;2313;48.552;9.370;2022-09-20T09:00:29;12.40;99.90
4602;DHT22;2313;48.552;9.370;2022-09-20T09:02:58;12.40;99.90
4602;DHT22;2313;48.552;9.370;2022-09-20T09:07:56;13.00;99.90
4602;DHT22;2313;48.552;9.370;2022-09-20T09:10:26;13.00;99.90
4602;DHT22;2313;48.552;9.370;2022-09-20T09:12:53;13.20;99.90
4602;DHT22;2313;48.552;9.370;2022-09-20T09:15:32;13.20;99.90
4602;DHT22;2313;48.552;9.370;2022-09-20T09:17:59;13.10;99.90
4602;DHT22;2313;48.552;9.370;2022-09-20T09:20:25;12.80;99.90
4602;DHT22;2313;48.552;9.370;2022-09-20T09:23:07;12.60;99.90
4602;DHT22;2313;48.552;9.370;2022-09-20T09:25:37;12.80;99.90
4602;DHT22;2313;48.552;9.370;2022-09-20T09:30:43;13.60;99.90
4602;DHT22;2313;48.552;9.370;2022-09-20T09:33:24;14.30;99.90
4602;DHT22;2313;48.552;9.370;2022-09-20T09:38:26;16.00;99.90
4602;DHT22;2313;48.552;9.370;2022-09-20T09:41:17;15.60;99.90
4602;DHT22;2313;48.552;9.370;2022-09-20T09:43:58;15.10;99.90
4602;DHT22;2313;48.552;9.370;2022-09-20T09:46:26;14.50;99.90
4602;DHT22;2313;48.552;9.370;2022-09-20T09:51:33;15.40;99.90
4602;DHT22;2313;48.552;9.370;2022-09-20T09:53:59;15.20;99.90
4602;DHT22;2313;48.552;9.370;2022-09-20T10:05:03;15.50;99.90
4602;DHT22;2313;48.552;9.370;2022-09-20T10:08:02;16.50;99.90
4602;DHT22;2313;48.552;9.370;2022-09-20T10:13:17;18.10;99.90
4602;DHT22;2313;48.552;9.370;2022-09-20T10:16:01;18.70;99.90
4602;DHT22;2313;48.552;9.370;2022-09-20T10:27:25;16.90;99.90
4602;DHT22;2313;48.552;9.370;2022-09-20T10:29:58;16.40;99.90
4602;DHT22;2313;48.552;9.370;2022-09-20T10:38:11;14.70;99.90
4602;DHT22;2313;48.552;9.370;2022-09-20T10:43:45;15.50;99.90
4602;DHT22;2313;48.552;9.370;2022-09-20T10:57:08;15.40;99.90
4602;DHT22;2313;48.552;9.370;2022-09-20T11:00:03;15.10;99.90
4602;DHT22;2313;48.552;9.370;2022-09-20T11:02:48;14.70;99.90
4602;DHT22;2313;48.552;9.370;2022-09-20T11:18:36;13.80;99.90
4602;DHT22;2313;48.552;9.370;2022-09-20T11:23:48;13.80;99.90
4602;DHT22;2313;48.552;9.370;2022-09-20T11:29:16;13.80;99.90
4602;DHT22;2313;48.552;9.370;2022-09-20T11:31:45;14.00;99.90
4602;DHT22;2313;48.552;9.370;2022-09-20T11:34:24;14.20;99.90
4602;DHT22;2313;48.552;9.370;2022-09-20T11:36:58;14.20;99.90
4602;DHT22;2313;48.552;9.370;2022-09-20T11:42:00;14.40;99.90
4602;DHT22;2313;48.552;9.370;2022-09-20T11:44:27;14.40;99.90
4602;DHT22;2313;48.552;9.370;2022-09-20T11:58:26;16.10;98.20
4602;DHT22;2313;48.552;9.370;2022-09-20T12:00:55;16.00;97.40
4602;DHT22;2313;48.552;9.370;2022-09-20T12:06:25;15.40;99.90
4602;DHT22;2313;48.552;9.370;2022-09-20T12:08:53;15.30;99.90
4602;DHT22;2313;48.552;9.370;2022-09-20T12:11:29;15.20;99.90
4602;DHT22;2313;48.552;9.370;2022-09-20T12:14:05;15.10;99.90
4602;DHT22;2313;48.552;9.370;2022-09-20T12:16:42;15.20;99.90
4602;DHT22;2313;48.552;9.370;2022-09-20T12:19:12;15.80;99.90
4602;DHT22;2313;48.552;9.370;2022-09-20T12:24:33;16.30;98.40
4602;DHT22;2313;48.552;9.370;2022-09-20T12:41:09;16.20;95.10
4602;DHT22;2313;48.552;9.370;2022-09-20T12:44:39;16.00;96.30
4602;DHT22;2313;48.552;9.370;2022-09-20T12:46:40;15.90;98.00
4602;DHT22;2313;48.552;9.370;2022-09-20T12:52:24;15.60;99.70
4602;DHT22;2313;48.552;9.370;2022-09-20T12:55:11;15.50;99.90
4602;DHT22;2313;48.552;9.370;2022-09-20T12:57:37;15.30;99.90
4602;DHT22;2313;48.552;9.370;2022-09-20T13:00:05;15.10;99.20
4602;DHT22;2313;48.552;9.370;2022-09-20T13:03:09;14.90;99.90
4602;DHT22;2313;48.552;9.370;2022-09-20T13:05:39;14.70;99.90
4602;DHT22;2313;48.552;9.370;2022-09-20T13:08:24;14.50;99.90
4602;DHT22;2313;48.552;9.370;2022-09-20T13:13:29;14.30;99.90
4602;DHT22;2313;48.552;9.370;2022-09-20T13:15:57;14.30;99.90
4602;DHT22;2313;48.552;9.370;2022-09-20T13:18:24;14.40;99.90
4602;DHT22;2313;48.552;9.370;2022-09-20T13:20:53;14.30;99.90
4602;DHT22;2313;48.552;9.370;2022-09-20T13:23:26;14.40;99.90
4602;DHT22;2313;48.552;9.370;2022-09-20T13:25:54;14.60;99.90
4602;DHT22;2313;48.552;9.370;2022-09-20T13:28:43;14.70;99.90
4602;DHT22;2313;48.552;9.370;2022-09-20T13:33:49;14.90;99.90
4602;DHT22;2313;48.552;9.370;2022-09-20T13:36:22;15.10;99.90
4602;DHT22;2313;48.552;9.370;2022-09-20T13:38:48;15.00;99.90
4602;DHT22;2313;48.552;9.370;2022-09-20T13:41:14;15.00;99.90
4602;DHT22;2313;48.552;9.370;2022-09-20T13:43:42;15.40;99.90
4602;DHT22;2313;48.552;9.370;2022-09-20T13:46:14;15.80;97.80
4602;DHT22;2313;48.552;9.370;2022-09-20T13:48:41;16.00;95.40
4602;DHT22;2313;48.552;9.370;2022-09-20T13:51:34;16.30;94.80
4602;DHT22;2313;48.552;9.370;2022-09-20T13:54:19;16.10;93.70
4602;DHT22;2313;48.552;9.370;2022-09-20T13:56:47;16.10;94.50
4602;DHT22;2313;48.552;9.370;2022-09-20T13:59:13;16.20;94.80
4602;DHT22;2313;48.552;9.370;2022-09-20T14:01:50;16.10;92.70
4602;DHT22;2313;48.552;9.370;2022-09-20T14:04:22;15.80;93.20
4602;DHT22;2313;48.552;9.370;2022-09-20T14:06:51;15.50;93.90
4602;DHT22;2313;48.552;9.370;2022-09-20T14:09:33;15.20;94.90
4602;DHT22;2313;48.552;9.370;2022-09-20T14:12:03;15.00;96.30
4602;DHT22;2313;48.552;9.370;2022-09-20T14:14:30;14.80;97.60
4602;DHT22;2313;48.552;9.370;2022-09-20T14:17:00;14.80;98.50
4602;DHT22;2313;48.552;9.370;2022-09-20T14:19:31;14.70;96.70
4602;DHT22;2313;48.552;9.370;2022-09-20T14:22:04;14.60;95.80
4602;DHT22;2313;48.552;9.370;2022-09-20T14:24:32;14.60;97.80
4602;DHT22;2313;48.552;9.370;2022-09-20T14:29:47;14.50;99.90
4602;DHT22;2313;48.552;9.370;2022-09-20T14:34:43;14.50;99.90
4602;DHT22;2313;48.552;9.370;2022-09-20T14:37:22;14.50;99.90
4602;DHT22;2313;48.552;9.370;2022-09-20T14:39:54;14.50;99.90
4602;DHT22;2313;48.552;9.370;2022-09-20T14:42:29;14.50;98.40
4602;DHT22;2313;48.552;9.370;2022-09-20T14:44:55;14.50;99.90
4602;DHT22;2313;48.552;9.370;2022-09-20T14:47:36;14.60;99.90
4602;DHT22;2313;48.552;9.370;2022-09-20T14:50:25;14.50;99.40
4602;DHT22;2313;48.552;9.370;2022-09-20T14:53:19;14.50;99.90
4602;DHT22;2313;48.552;9.370;2022-09-20T14:56:39;14.40;99.10
4602;DHT22;2313;48.552;9.370;2022-09-20T14:59:18;14.40;98.30
4602;DHT22;2313;48.552;9.370;2022-09-20T15:04:35;14.10;99.90
4602;DHT22;2313;48.552;9.370;2022-09-20T15:07:04;14.00;99.90
4602;DHT22;2313;48.552;9.370;2022-09-20T15:09:31;14.00;99.90
4602;DHT22;2313;48.552;9.370;2022-09-20T15:12:05;13.90;99.90
4602;DHT22;2313;48.552;9.370;2022-09-20T15:14:31;13.80;99.90
4602;DHT22;2313;48.552;9.370;2022-09-20T15:16:58;13.70;99.90
4602;DHT22;2313;48.552;9.370;2022-09-20T15:19:27;13.60;99.90
4602;DHT22;2313;48.552;9.370;2022-09-20T15:21:53;13.50;99.90
4602;DHT22;2313;48.552;9.370;2022-09-20T15:24:18;13.50;99.90
4602;DHT22;2313;48.552;9.370;2022-09-20T15:26:44;13.40;99.90
4602;DHT22;2313;48.552;9.370;2022-09-20T15:29:14;13.40;99.90
4602;DHT22;2313;48.552;9.370;2022-09-20T15:31:41;13.40;99.90
4602;DHT22;2313;48.552;9.370;2022-09-20T15:34:07;13.30;99.90
4602;DHT22;2313;48.552;9.370;2022-09-20T15:36:33;13.30;99.90
4602;DHT22;2313;48.552;9.370;2022-09-20T15:38:59;13.20;99.90
4602;DHT22;2313;48.552;9.370;2022-09-20T15:41:24;13.20;99.90
4602;DHT22;2313;48.552;9.370;2022-09-20T15:43:50;13.20;99.90
4602;DHT22;2313;48.552;9.370;2022-09-20T15:46:23;13.20;99.90
4602;DHT22;2313;48.552;9.370;2022-09-20T15:48:54;13.20;99.90
4602;DHT22;2313;48.552;9.370;2022-09-20T15:51:23;13.20;99.90
4602;DHT22;2313;48.552;9.370;2022-09-20T15:54:01;13.20;99.90
4602;DHT22;2313;48.552;9.370;2022-09-20T15:56:32;13.20;99.90
4602;DHT22;2313;48.552;9.370;2022-09-20T15:59:00;13.20;99.90
4602;DHT22;2313;48.552;9.370;2022-09-20T16:01:31;13.20;99.90
4602;DHT22;2313;48.552;9.370;2022-09-20T16:03:58;13.30;99.90
4602;DHT22;2313;48.552;9.370;2022-09-20T16:06:24;13.40;99.90
4602;DHT22;2313;48.552;9.370;2022-09-20T16:08:50;13.40;99.90
4602;DHT22;2313;48.552;9.370;2022-09-20T16:11:19;13.40;99.90
4602;DHT22;2313;48.552;9.370;2022-09-20T16:13:50;13.50;99.90
4602;DHT22;2313;48.552;9.370;2022-09-20T16:16:16;13.60;99.90
4602;DHT22;2313;48.552;9.370;2022-09-20T16:18:42;13.70;99.90
4602;DHT22;2313;48.552;9.370;2022-09-20T16:21:28;13.90;99.90
4602;DHT22;2313;48.552;9.370;2022-09-20T16:23:55;13.80;99.90
4602;DHT22;2313;48.552;9.370;2022-09-20T16:26:23;13.80;99.90
4602;DHT22;2313;48.552;9.370;2022-09-20T16:28:49;13.70;99.90
4602;DHT22;2313;48.552;9.370;2022-09-20T16:31:27;13.70;99.90
4602;DHT22;2313;48.552;9.370;2022-09-20T16:33:53;13.60;99.90
4602;DHT22;2313;48.552;9.370;2022-09-20T16:36:19;13.50;99.90
4602;DHT22;2313;48.552;9.370;2022-09-20T16:38:45;13.40;99.90
4602;DHT22;2313;48.552;9.370;2022-09-20T16:41:10;13.40;99.90
4602;DHT22;2313;48.552;9.370;2022-09-20T16:43:36;13.30;99.90
4602;DHT22;2313;48.552;9.370;2022-09-20T16:46:02;13.20;99.90
4602;DHT22;2313;48.552;9.370;2022-09-20T16:48:29;12.90;99.90
4602;DHT22;2313;48.552;9.370;2022-09-20T16:50:56;12.80;99.90
4602;DHT22;2313;48.552;9.370;2022-09-20T16:53:24;12.70;99.90
4602;DHT22;2313;48.552;9.370;2022-09-20T16:55:50;12.60;99.90
4602;DHT22;2313;48.552;9.370;2022-09-20T16:58:16;12.60;99.90
4602;DHT22;2313;48.552;9.370;2022-09-20T17:00:42;12.50;99.90
4602;DHT22;2313;48.552;9.370;2022-09-20T17:03:08;12.40;99.90
4602;DHT22;2313;48.552;9.370;2022-09-20T17:05:33;12.30;99.90
4602;DHT22;2313;48.552;9.370;2022-09-20T17:07:59;12.20;99.90
4602;DHT22;2313;48.552;9.370;2022-09-20T17:10:25;12.20;99.90
4602;DHT22;2313;48.552;9.370;2022-09-20T17:12:52;12.10;99.90
4602;DHT22;2313;48.552;9.370;2022-09-20T17:15:22;12.00;99.90
4602;DHT22;2313;48.552;9.370;2022-09-20T17:17:48;12.00;99.90
4602;DHT22;2313;48.552;9.370;2022-09-20T17:20:14;11.80;99.90
4602;DHT22;2313;48.552;9.370;2022-09-20T17:22:40;11.80;99.90
4602;DHT22;2313;48.552;9.370;2022-09-20T17:25:07;11.70;99.90
4602;DHT22;2313;48.552;9.370;2022-09-20T17:27:33;11.60;99.90
4602;DHT22;2313;48.552;9.370;2022-09-20T17:30:00;11.60;99.90
4602;DHT22;2313;48.552;9.370;2022-09-20T17:32:26;11.60;99.90
4602;DHT22;2313;48.552;9.370;2022-09-20T17:34:53;11.60;99.90
4602;DHT22;2313;48.552;9.370;2022-09-20T17:37:19;11.60;99.90
4602;DHT22;2313;48.552;9.370;2022-09-20T17:39:45;11.50;99.90
4602;DHT22;2313;48.552;9.370;2022-09-20T17:42:10;11.50;99.90
4602;DHT22;2313;48.552;9.370;2022-09-20T17:44:36;11.30;99.90
4602;DHT22;2313;48.552;9.370;2022-09-20T17:47:03;11.30;99.90
4602;DHT22;2313;48.552;9.370;2022-09-20T17:49:28;11.20;99.90
4602;DHT22;2313;48.552;9.370;2022-09-20T17:51:55;11.20;99.90
4602;DHT22;2313;48.552;9.370;2022-09-20T17:54:22;11.00;99.90
4602;DHT22;2313;48.552;9.370;2022-09-20T17:56:50;11.00;99.90
4602;DHT22;2313;48.552;9.370;2022-09-20T17:59:17;11.10;99.90
4602;DHT22;2313;48.552;9.370;2022-09-20T18:01:45;11.10;99.90
4602;DHT22;2313;48.552;9.370;2022-09-20T18:04:12;10.90;99.90
4602;DHT22;2313;48.552;9.370;2022-09-20T18:06:48;10.90;99.90
4602;DHT22;2313;48.552;9.370;2022-09-20T18:09:20;10.90;99.90
4602;DHT22;2313;48.552;9.370;2022-09-20T18:11:51;10.70;99.90
4602;DHT22;2313;48.552;9.370;2022-09-20T18:14:25;10.60;99.90
4602;DHT22;2313;48.552;9.370;2022-09-20T18:16:53;10.50;99.90
4602;DHT22;2313;48.552;9.370;2022-09-20T18:19:20;10.40;99.90
4602;DHT22;2313;48.552;9.370;2022-09-20T18:21:47;10.30;99.90
4602;DHT22;2313;48.552;9.370;2022-09-20T18:24:12;10.20;99.90
4602;DHT22;2313;48.552;9.370;2022-09-20T18:26:38;10.30;99.90
4602;DHT22;2313;48.552;9.370;2022-09-20T18:29:06;10.30;99.90
4602;DHT22;2313;48.552;9.370;2022-09-20T18:31:38;10.30;99.90
4602;DHT22;2313;48.552;9.370;2022-09-20T18:34:09;10.20;99.90
4602;DHT22;2313;48.552;9.370;2022-09-20T18:36:37;10.10;99.90
4602;DHT22;2313;48.552;9.370;2022-09-20T18:39:05;10.00;99.90
4602;DHT22;2313;48.552;9.370;2022-09-20T18:41:35;9.90;99.90
4602;DHT22;2313;48.552;9.370;2022-09-20T18:44:03;9.80;99.90
4602;DHT22;2313;48.552;9.370;2022-09-20T18:46:29;9.90;99.90
4602;DHT22;2313;48.552;9.370;2022-09-20T18:49:00;9.90;99.90
4602;DHT22;2313;48.552;9.370;2022-09-20T18:51:29;9.80;99.90
4602;DHT22;2313;48.552;9.370;2022-09-20T18:53:56;9.90;99.90
4602;DHT22;2313;48.552;9.370;2022-09-20T18:56:30;10.00;99.90
4602;DHT22;2313;48.552;9.370;2022-09-20T18:59:04;9.90;99.90
4602;DHT22;2313;48.552;9.370;2022-09-20T19:21:49;9.10;99.90
4602;DHT22;2313;48.552;9.370;2022-09-20T19:24:24;9.10;99.90
4602;DHT22;2313;48.552;9.370;2022-09-20T19:26:52;9.10;99.90
4602;DHT22;2313;48.552;9.370;2022-09-20T19:29:20;9.10;99.90
4602;DHT22;2313;48.552;9.370;2022-09-20T19:31:48;9.00;99.90
4602;DHT22;2313;48.552;9.370;2022-09-20T19:34:22;8.70;99.90
4602;DHT22;2313;48.552;9.370;2022-09-20T19:45:24;8.40;99.90
4602;DHT22;2313;48.552;9.370;2022-09-20T19:53:01;8.90;99.90
4602;DHT22;2313;48.552;9.370;2022-09-20T19:55:30;8.90;99.90
4602;DHT22;2313;48.552;9.370;2022-09-20T19:57:56;8.90;99.90
4602;DHT22;2313;48.552;9.370;2022-09-20T20:00:22;9.00;99.90
4602;DHT22;2313;48.552;9.370;2022-09-20T20:02:48;9.00;99.90
4602;DHT22;2313;48.552;9.370;2022-09-20T20:05:16;9.10;99.90
4602;DHT22;2313;48.552;9.370;2022-09-20T20:08:10;9.20;99.90
4602;DHT22;2313;48.552;9.370;2022-09-20T20:13:31;9.40;99.90
4602;DHT22;2313;48.552;9.370;2022-09-20T20:16:25;9.50;99.90
4602;DHT22;2313;48.552;9.370;2022-09-20T20:21:44;9.60;99.90
4602;DHT22;2313;48.552;9.370;2022-09-20T20:24:25;9.70;99.90
4602;DHT22;2313;48.552;9.370;2022-09-20T20:26:55;9.60;99.90
4602;DHT22;2313;48.552;9.370;2022-09-20T20:29:20;9.60;99.90
4602;DHT22;2313;48.552;9.370;2022-09-20T20:31:46;9.70;99.90
4602;DHT22;2313;48.552;9.370;2022-09-20T20:34:11;9.70;99.90
4602;DHT22;2313;48.552;9.370;2022-09-20T20:36:41;9.60;99.90
4602;DHT22;2313;48.552;9.370;2022-09-20T20:39:08;9.50;99.90
4602;DHT22;2313;48.552;9.370;2022-09-20T20:41:34;9.50;99.90
4602;DHT22;2313;48.552;9.370;2022-09-20T20:44:00;9.70;99.90
4602;DHT22;2313;48.552;9.370;2022-09-20T20:46:33;9.70;99.90
4602;DHT22;2313;48.552;9.370;2022-09-20T20:49:01;9.70;99.90
4602;DHT22;2313;48.552;9.370;2022-09-20T20:51:27;9.80;99.90
4602;DHT22;2313;48.552;9.370;2022-09-20T20:53:53;9.80;99.90
4602;DHT22;2313;48.552;9.370;2022-09-20T20:56:24;9.70;99.90
4602;DHT22;2313;48.552;9.370;2022-09-20T20:58:50;9.60;99.90
4602;DHT22;2313;48.552;9.370;2022-09-20T21:01:22;9.60;99.90
4602;DHT22;2313;48.552;9.370;2022-09-20T21:03:52;9.60;99.90
4602;DHT22;2313;48.552;9.370;2022-09-20T21:06:20;9.50;99.90
4602;DHT22;2313;48.552;9.370;2022-09-20T21:08:47;9.40;99.90
4602;DHT22;2313;48.552;9.370;2022-09-20T21:11:15;9.50;99.90
4602;DHT22;2313;48.552;9.370;2022-09-20T21:13:42;9.60;99.90
4602;DHT22;2313;48.552;9.370;2022-09-20T21:16:10;9.50;99.90
4602;DHT22;2313;48.552;9.370;2022-09-20T21:18:37;9.50;99.90
4602;DHT22;2313;48.552;9.370;2022-09-20T21:21:10;9.50;99.90
4602;DHT22;2313;48.552;9.370;2022-09-20T21:23:36;9.50;99.90
4602;DHT22;2313;48.552;9.370;2022-09-20T21:26:07;9.40;99.90
4602;DHT22;2313;48.552;9.370;2022-09-20T21:28:38;9.40;99.90
4602;DHT22;2313;48.552;9.370;2022-09-20T21:31:05;9.40;99.90
4602;DHT22;2313;48.552;9.370;2022-09-20T21:33:36;9.30;99.90
4602;DHT22;2313;48.552;9.370;2022-09-20T21:36:03;9.20;99.90
4602;DHT22;2313;48.552;9.370;2022-09-20T21:38:29;9.20;99.90
4602;DHT22;2313;48.552;9.370;2022-09-20T21:41:13;9.20;99.90
4602;DHT22;2313;48.552;9.370;2022-09-20T21:43:43;9.20;99.90
4602;DHT22;2313;48.552;9.370;2022-09-20T21:46:16;9.10;99.90
4602;DHT22;2313;48.552;9.370;2022-09-20T21:48:43;8.80;99.90
4602;DHT22;2313;48.552;9.370;2022-09-20T21:51:11;8.60;99.90
4602;DHT22;2313;48.552;9.370;2022-09-20T21:53:37;8.40;99.90
4602;DHT22;2313;48.552;9.370;2022-09-20T21:56:06;8.30;99.90
4602;DHT22;2313;48.552;9.370;2022-09-20T21:58:32;8.30;99.90
4602;DHT22;2313;48.552;9.370;2022-09-20T22:01:04;8.20;99.90
4602;DHT22;2313;48.552;9.370;2022-09-20T22:03:34;8.20;99.90
4602;DHT22;2313;48.552;9.370;2022-09-20T22:06:15;8.30;99.90
4602;DHT22;2313;48.552;9.370;2022-09-20T22:08:50;8.30;99.90
4602;DHT22;2313;48.552;9.370;2022-09-20T22:11:20;8.30;99.90
4602;DHT22;2313;48.552;9.370;2022-09-20T22:13:47;8.20;99.90
4602;DHT22;2313;48.552;9.370;2022-09-20T22:16:16;8.20;99.90
4602;DHT22;2313;48.552;9.370;2022-09-20T22:18:42;8.10;99.90
4602;DHT22;2313;48.552;9.370;2022-09-20T22:21:14;8.00;99.90
4602;DHT22;2313;48.552;9.370;2022-09-20T22:23:41;7.90;99.90
4602;DHT22;2313;48.552;9.370;2022-09-20T22:26:09;7.90;99.90